createdAt,value
2022-12-03T00:00:18.899Z,6.17
2022-12-03T00:03:07.711Z,6.20
2022-12-03T00:05:56.254Z,6.10
2022-12-03T00:08:46.024Z,7.00
2022-12-03T00:11:34.938Z,6.70
2022-12-03T00:14:23.350Z,6.40
2022-12-03T00:17:11.797Z,6.90
2022-12-03T00:20:00.264Z,6.57
2022-12-03T00:22:48.667Z,7.47
2022-12-03T00:25:38.412Z,7.73
2022-12-03T00:28:26.801Z,6.90
2022-12-03T00:31:15.298Z,7.23
2022-12-03T00:34:03.807Z,7.37
2022-12-03T00:36:52.228Z,6.83
2022-12-03T00:39:40.640Z,6.97
2022-12-03T00:42:30.433Z,7.53
2022-12-03T00:45:19.170Z,7.13
2022-12-03T00:48:07.846Z,8.07
2022-12-03T00:50:56.324Z,7.23
2022-12-03T00:53:44.720Z,7.50
2022-12-03T00:56:33.166Z,7.93
2022-12-03T00:59:22.931Z,7.23
2022-12-03T01:02:11.706Z,7.60
2022-12-03T01:05:00.251Z,8.17
2022-12-03T01:07:48.824Z,8.10
2022-12-03T01:10:37.383Z,7.83
2022-12-03T01:13:25.819Z,7.60
2022-12-03T01:16:15.653Z,7.93
2022-12-03T01:19:04.392Z,8.20
2022-12-03T01:21:53.019Z,7.97
2022-12-03T01:24:41.440Z,8.17
2022-12-03T01:27:29.890Z,7.97
2022-12-03T01:30:18.445Z,8.47
2022-12-03T01:33:07.198Z,7.97
2022-12-03T01:35:55.634Z,7.90
2022-12-03T01:38:44.032Z,8.60
2022-12-03T01:41:32.590Z,8.50
2022-12-03T01:44:23.636Z,8.57
2022-12-03T01:47:15.484Z,8.57
2022-12-03T01:50:07.519Z,9.13
2022-12-03T01:52:56.256Z,8.97
2022-12-03T01:55:48.590Z,8.93
2022-12-03T01:58:37.474Z,9.07
2022-12-03T02:01:25.922Z,9.67
2022-12-03T02:04:15.981Z,8.73
2022-12-03T02:07:24.809Z,9.23
2022-12-03T02:10:14.812Z,9.37
2022-12-03T02:13:05.657Z,9.90
2022-12-03T02:15:54.093Z,9.77
2022-12-03T02:18:43.044Z,9.63
2022-12-03T02:21:36.897Z,9.73
2022-12-03T02:24:30.350Z,9.63
2022-12-03T02:27:20.054Z,9.87
2022-12-03T02:30:10.241Z,10.23
2022-12-03T02:32:58.808Z,10.03
2022-12-03T02:35:47.203Z,10.23
2022-12-03T02:38:35.673Z,9.57
2022-12-03T02:41:41.658Z,11.27
2022-12-03T02:44:31.347Z,11.10
2022-12-03T02:47:20.122Z,10.80
2022-12-03T02:50:09.224Z,10.90
2022-12-03T02:52:57.850Z,11.33
2022-12-03T02:55:47.402Z,10.83
2022-12-03T02:58:35.762Z,10.83
2022-12-03T03:01:25.506Z,11.27
2022-12-03T03:04:13.981Z,11.60
2022-12-03T03:07:03.528Z,11.83
2022-12-03T03:09:52.427Z,11.03
2022-12-03T03:12:40.821Z,12.00
2022-12-03T03:15:29.190Z,11.13
2022-12-03T03:18:18.889Z,11.23
2022-12-03T03:21:07.541Z,11.70
2022-12-03T03:23:55.898Z,11.40
2022-12-03T03:26:44.656Z,11.73
2022-12-03T03:29:33.093Z,11.50
2022-12-03T03:32:21.859Z,12.07
2022-12-03T03:35:14.602Z,11.53
2022-12-03T03:38:02.965Z,10.50
2022-12-03T03:40:51.723Z,11.10
2022-12-03T03:43:40.206Z,11.63
2022-12-03T03:46:28.632Z,10.57
2022-12-03T03:49:17.259Z,11.30
2022-12-03T03:52:10.083Z,11.77
2022-12-03T03:54:58.435Z,11.27
2022-12-03T03:57:47.124Z,10.53
2022-12-03T04:00:36.158Z,10.50
2022-12-03T04:03:24.797Z,10.90
2022-12-03T04:06:13.265Z,11.97
2022-12-03T04:09:02.955Z,12.17
2022-12-03T04:12:09.042Z,11.97
2022-12-03T04:14:57.627Z,11.57
2022-12-03T04:18:06.033Z,12.50
2022-12-03T04:21:14.849Z,12.40
2022-12-03T04:24:04.184Z,11.10
2022-12-03T04:27:10.389Z,12.97
2022-12-03T04:29:58.785Z,11.70
2022-12-03T04:33:04.599Z,11.40
2022-12-03T04:35:53.127Z,11.53
2022-12-03T04:38:41.537Z,10.93
2022-12-03T04:41:31.244Z,11.07
2022-12-03T04:44:36.033Z,10.40
2022-12-03T04:47:24.397Z,11.07
2022-12-03T04:50:13.076Z,10.97
2022-12-03T04:53:01.481Z,11.47
2022-12-03T04:55:49.903Z,11.03
2022-12-03T04:58:39.698Z,11.10
2022-12-03T05:01:28.142Z,10.57
2022-12-03T05:04:16.769Z,10.87
2022-12-03T05:07:05.502Z,10.47
2022-12-03T05:09:54.300Z,9.97
2022-12-03T05:12:42.682Z,10.33
2022-12-03T05:15:32.452Z,10.60
2022-12-03T05:18:20.857Z,11.60
2022-12-03T05:21:09.242Z,11.60
2022-12-03T05:23:57.615Z,10.73
2022-12-03T05:26:46.006Z,10.70
2022-12-03T05:29:34.396Z,10.77
2022-12-03T05:32:24.242Z,11.80
2022-12-03T05:35:12.683Z,11.40
2022-12-03T05:38:01.095Z,11.30
2022-12-03T05:40:49.489Z,10.40
2022-12-03T05:43:36.889Z,11.40
2022-12-03T05:46:25.326Z,11.43
2022-12-03T05:49:15.098Z,10.63
2022-12-03T05:52:04.706Z,10.40
2022-12-03T05:54:53.301Z,9.77
2022-12-03T05:57:41.942Z,10.33
2022-12-03T06:00:31.743Z,9.83
2022-12-03T06:03:20.216Z,10.40
2022-12-03T06:06:10.042Z,10.17
2022-12-03T06:08:58.438Z,9.50
2022-12-03T06:11:46.802Z,10.43
2022-12-03T06:14:35.657Z,11.80
2022-12-03T06:17:24.033Z,10.67
2022-12-03T06:20:14.591Z,10.97
2022-12-03T06:23:04.397Z,10.43
2022-12-03T06:25:52.796Z,11.13
2022-12-03T06:28:41.227Z,9.70
2022-12-03T06:31:29.887Z,10.63
2022-12-03T06:34:18.385Z,10.83
2022-12-03T06:37:06.786Z,10.93
2022-12-03T06:39:56.551Z,10.37
2022-12-03T06:42:45.001Z,11.13
2022-12-03T06:45:33.454Z,11.33
2022-12-03T06:48:21.988Z,11.30
2022-12-03T06:51:10.419Z,11.47
2022-12-03T06:53:58.842Z,11.23
2022-12-03T06:56:48.729Z,10.80
2022-12-03T06:59:37.553Z,11.77
2022-12-03T07:02:26.073Z,11.27
2022-12-03T07:04:54.573Z,11.37
2022-12-03T07:07:23.005Z,12.73
2022-12-03T07:09:51.467Z,12.00
2022-12-03T07:12:21.707Z,12.60
2022-12-03T07:14:49.759Z,12.00
2022-12-03T07:17:17.844Z,13.37
2022-12-03T07:19:46.134Z,12.37
2022-12-03T07:22:14.196Z,12.77
2022-12-03T07:24:42.692Z,12.50
2022-12-03T07:27:10.820Z,13.00
2022-12-03T07:29:40.237Z,12.47
2022-12-03T07:32:08.300Z,12.63
2022-12-03T07:34:36.384Z,12.10
2022-12-03T07:37:05.605Z,12.00
2022-12-03T07:39:33.708Z,12.73
2022-12-03T07:42:03.094Z,13.83
2022-12-03T07:44:31.809Z,13.10
2022-12-03T07:47:01.337Z,14.53
2022-12-03T07:49:29.669Z,13.87
2022-12-03T07:51:57.747Z,36.27
2022-12-03T07:54:27.160Z,14.67
2022-12-03T07:57:00.962Z,17.30
2022-12-03T07:59:29.779Z,15.10
2022-12-03T08:01:57.941Z,14.83
2022-12-03T08:04:27.450Z,15.53
2022-12-03T08:06:55.507Z,15.23
2022-12-03T08:09:23.624Z,15.90
2022-12-03T08:11:51.690Z,16.60
2022-12-03T08:14:20.809Z,15.80
2022-12-03T08:16:49.268Z,16.57
2022-12-03T08:19:18.569Z,15.40
2022-12-03T08:21:48.015Z,15.93
2022-12-03T08:24:18.037Z,15.53
2022-12-03T08:26:47.198Z,22.27
2022-12-03T08:29:16.458Z,19.10
2022-12-03T08:31:48.426Z,17.00
2022-12-03T08:34:19.251Z,17.33
2022-12-03T08:36:49.152Z,16.00
2022-12-03T08:39:30.589Z,20.73
2022-12-03T08:42:20.925Z,19.07
2022-12-03T08:44:49.093Z,15.37
2022-12-03T08:47:20.571Z,14.10
2022-12-03T08:49:52.445Z,16.80
2022-12-03T08:52:22.455Z,15.77
2022-12-03T08:54:53.560Z,14.90
2022-12-03T08:57:28.388Z,14.40
2022-12-03T09:00:00.085Z,16.23
2022-12-03T09:02:33.333Z,19.80
2022-12-03T09:05:10.481Z,16.07
2022-12-03T09:07:40.499Z,16.07
2022-12-03T09:10:10.157Z,16.47
2022-12-03T09:12:38.322Z,15.63
2022-12-03T09:15:07.864Z,15.27
2022-12-03T09:17:37.544Z,15.43
2022-12-03T09:20:09.113Z,15.40
2022-12-03T09:22:38.626Z,15.30
2022-12-03T09:25:08.130Z,15.03
2022-12-03T09:27:36.245Z,15.20
2022-12-03T09:30:04.842Z,15.20
2022-12-03T09:32:33.020Z,15.67
2022-12-03T09:35:01.376Z,15.00
2022-12-03T09:37:29.472Z,15.67
2022-12-03T09:39:58.884Z,15.40
2022-12-03T09:42:26.974Z,15.37
2022-12-03T09:44:55.514Z,14.57
2022-12-03T09:47:23.988Z,15.60
2022-12-03T09:49:52.477Z,14.73
2022-12-03T09:52:25.046Z,15.23
2022-12-03T09:54:54.472Z,13.27
2022-12-03T09:57:24.203Z,15.20
2022-12-03T09:59:52.731Z,14.70
2022-12-03T10:02:22.642Z,15.07
2022-12-03T10:04:51.078Z,15.43
2022-12-03T10:07:19.362Z,16.30
2022-12-03T10:09:47.473Z,15.40
2022-12-03T10:12:15.651Z,14.27
2022-12-03T10:14:45.105Z,15.27
2022-12-03T10:17:13.369Z,14.67
2022-12-03T10:19:42.704Z,15.90
2022-12-03T10:22:10.787Z,15.33
2022-12-03T10:24:39.621Z,14.87
2022-12-03T10:27:22.758Z,15.00
2022-12-03T10:29:59.557Z,15.27
2022-12-03T10:32:28.495Z,14.97
2022-12-03T10:35:09.467Z,15.67
2022-12-03T10:37:37.844Z,15.50
2022-12-03T10:40:21.262Z,16.97
2022-12-03T10:42:49.330Z,15.00
2022-12-03T10:45:20.471Z,15.80
2022-12-03T10:48:06.729Z,17.00
2022-12-03T10:50:34.978Z,16.50
2022-12-03T10:53:03.227Z,15.17
2022-12-03T10:55:35.151Z,17.23
2022-12-03T10:58:03.310Z,15.57
2022-12-03T11:00:32.758Z,16.07
2022-12-03T11:03:00.857Z,16.77
2022-12-03T11:05:28.989Z,16.47
2022-12-03T11:07:57.378Z,15.63
2022-12-03T11:10:25.524Z,16.63
2022-12-03T11:13:29.037Z,15.87
2022-12-03T11:15:58.801Z,15.87
2022-12-03T11:19:04.503Z,16.10
2022-12-03T11:21:32.783Z,15.87
2022-12-03T11:24:19.577Z,15.33
2022-12-03T11:27:08.786Z,15.93
2022-12-03T11:30:02.018Z,16.67
2022-12-03T11:33:20.548Z,15.80
2022-12-03T11:36:11.369Z,15.10
2022-12-03T11:38:52.922Z,15.87
2022-12-03T11:41:27.797Z,15.20
2022-12-03T11:44:31.644Z,15.63
2022-12-03T11:47:02.160Z,16.00
2022-12-03T11:49:35.800Z,16.73
2022-12-03T11:52:18.669Z,16.90
2022-12-03T11:54:46.748Z,15.50
2022-12-03T11:57:39.727Z,16.87
2022-12-03T12:00:16.889Z,15.77
2022-12-03T12:02:45.291Z,16.53
2022-12-03T12:05:23.430Z,17.77
2022-12-03T12:07:52.741Z,17.33
2022-12-03T12:10:42.421Z,16.17
2022-12-03T12:13:44.504Z,17.70
2022-12-03T12:16:12.714Z,17.73
2022-12-03T12:18:42.365Z,16.63
2022-12-03T12:21:44.215Z,16.90
2022-12-03T12:24:38.198Z,16.93
2022-12-03T12:27:07.716Z,17.37
2022-12-03T12:29:36.723Z,16.97
2022-12-03T12:32:15.035Z,16.43
2022-12-03T12:34:44.597Z,16.60
2022-12-03T12:37:15.387Z,17.23
2022-12-03T12:39:43.888Z,17.33
2022-12-03T12:42:31.831Z,17.03
2022-12-03T12:45:16.319Z,16.70
2022-12-03T12:47:51.183Z,17.00
2022-12-03T12:50:20.740Z,16.77
2022-12-03T12:52:55.186Z,16.43
2022-12-03T12:55:23.974Z,16.67
2022-12-03T12:57:52.355Z,17.30
2022-12-03T13:00:22.929Z,16.63
2022-12-03T13:02:53.135Z,17.30
2022-12-03T13:05:21.419Z,16.90
2022-12-03T13:07:50.973Z,16.40
2022-12-03T13:10:39.417Z,16.20
2022-12-03T13:13:23.197Z,15.83
2022-12-03T13:16:08.418Z,17.03
2022-12-03T13:18:46.371Z,16.80
2022-12-03T13:21:23.827Z,16.13
2022-12-03T13:23:55.360Z,16.80
2022-12-03T13:26:38.645Z,15.80
2022-12-03T13:29:12.865Z,16.63
2022-12-03T13:31:44.116Z,15.77
2022-12-03T13:34:15.264Z,16.43
2022-12-03T13:36:44.515Z,15.90
2022-12-03T13:39:19.311Z,16.90
2022-12-03T13:42:05.264Z,15.60
2022-12-03T13:44:33.442Z,16.27
2022-12-03T13:47:02.089Z,16.93
2022-12-03T13:49:30.476Z,16.43
2022-12-03T13:51:58.595Z,15.83
2022-12-03T13:54:30.145Z,16.60
2022-12-03T13:57:00.099Z,16.10
2022-12-03T13:59:28.213Z,16.60
2022-12-03T14:01:56.357Z,15.30
2022-12-03T14:04:24.505Z,15.93
2022-12-03T14:06:52.607Z,16.00
2022-12-03T14:09:20.736Z,15.77
2022-12-03T14:12:08.422Z,15.17
2022-12-03T14:14:36.622Z,15.53
2022-12-03T14:17:04.885Z,15.03
2022-12-03T14:19:33.208Z,14.40
2022-12-03T14:22:01.331Z,14.50
2022-12-03T14:24:29.541Z,15.20
2022-12-03T14:26:59.020Z,15.27
2022-12-03T14:29:27.146Z,14.57
2022-12-03T14:31:55.376Z,14.67
2022-12-03T14:34:23.521Z,14.57
2022-12-03T14:36:52.051Z,14.20
2022-12-03T14:39:20.227Z,14.70
2022-12-03T14:42:06.162Z,14.50
2022-12-03T14:44:35.730Z,14.97
2022-12-03T14:47:04.126Z,14.67
2022-12-03T14:49:32.305Z,15.10
2022-12-03T14:52:00.731Z,14.30
2022-12-03T14:54:28.953Z,15.70
2022-12-03T14:56:57.081Z,14.23
2022-12-03T14:59:27.904Z,15.43
2022-12-03T15:01:58.072Z,14.03
2022-12-03T15:04:26.796Z,14.93
2022-12-03T15:06:54.908Z,14.20
2022-12-03T15:09:23.040Z,13.63
2022-12-03T15:11:51.221Z,14.80
2022-12-03T15:14:19.320Z,14.70
2022-12-03T15:16:47.464Z,13.97
2022-12-03T15:19:17.250Z,22.63
2022-12-03T15:21:45.309Z,18.00
2022-12-03T15:24:13.376Z,15.30
2022-12-03T15:26:41.498Z,15.30
2022-12-03T15:29:09.580Z,14.00
2022-12-03T15:31:37.767Z,14.10
2022-12-03T15:34:06.105Z,13.87
2022-12-03T15:36:35.502Z,14.47
2022-12-03T15:39:03.600Z,13.67
2022-12-03T15:41:32.203Z,14.63
2022-12-03T15:44:01.981Z,14.57
2022-12-03T15:46:31.319Z,14.63
2022-12-03T15:49:00.026Z,14.80
2022-12-03T15:51:30.204Z,14.73
2022-12-03T15:53:59.626Z,14.97
2022-12-03T15:56:27.716Z,14.83
2022-12-03T15:58:55.777Z,14.67
2022-12-03T16:01:23.885Z,15.27
2022-12-03T16:03:52.063Z,14.90
2022-12-03T16:06:20.321Z,14.77
2022-12-03T16:08:48.527Z,14.93
2022-12-03T16:11:18.032Z,14.63
2022-12-03T16:13:46.185Z,13.97
2022-12-03T16:16:14.627Z,13.67
2022-12-03T16:18:43.911Z,15.23
2022-12-03T16:21:12.094Z,14.70
2022-12-03T16:23:40.181Z,14.47
2022-12-03T16:26:08.238Z,13.70
2022-12-03T16:28:37.632Z,14.93
2022-12-03T16:31:05.980Z,14.27
2022-12-03T16:33:34.221Z,14.27
2022-12-03T16:36:03.716Z,14.63
2022-12-03T16:38:33.537Z,14.07
2022-12-03T16:41:02.194Z,14.93
2022-12-03T16:43:30.443Z,14.27
2022-12-03T16:46:09.977Z,13.80
2022-12-03T16:48:38.171Z,13.43
2022-12-03T16:51:06.546Z,13.87
2022-12-03T16:53:34.681Z,15.07
2022-12-03T16:56:03.110Z,14.27
2022-12-03T16:58:31.592Z,13.17
2022-12-03T17:01:01.026Z,11.60
2022-12-03T17:03:33.804Z,12.97
2022-12-03T17:06:02.432Z,13.73
2022-12-03T17:08:30.556Z,12.73
2022-12-03T17:10:58.737Z,12.40
2022-12-03T17:13:26.853Z,14.33
2022-12-03T17:15:54.967Z,12.43
2022-12-03T17:18:24.502Z,14.03
2022-12-03T17:20:52.564Z,13.87
2022-12-03T17:23:20.708Z,13.93
2022-12-03T17:25:48.814Z,13.33
2022-12-03T17:28:16.890Z,14.30
2022-12-03T17:30:45.731Z,13.33
2022-12-03T17:33:13.912Z,14.57
2022-12-03T17:35:43.410Z,13.63
2022-12-03T17:38:11.562Z,12.53
2022-12-03T17:40:39.796Z,13.37
2022-12-03T17:43:07.889Z,13.13
2022-12-03T17:45:36.753Z,13.00
2022-12-03T17:48:05.399Z,16.23
2022-12-03T17:50:33.827Z,14.80
2022-12-03T17:53:05.325Z,13.03
2022-12-03T17:55:39.699Z,13.80
2022-12-03T17:58:13.541Z,12.80
2022-12-03T18:00:41.716Z,13.77
2022-12-03T18:03:09.851Z,16.07
2022-12-03T18:05:37.948Z,14.17
2022-12-03T18:08:07.913Z,13.70
2022-12-03T18:10:36.050Z,14.23
2022-12-03T18:13:04.203Z,15.03
2022-12-03T18:15:33.160Z,13.23
2022-12-03T18:18:01.987Z,12.80
2022-12-03T18:20:30.123Z,14.17
2022-12-03T18:22:59.086Z,13.20
2022-12-03T18:25:29.903Z,13.80
2022-12-03T18:27:58.021Z,13.47
2022-12-03T18:30:26.272Z,13.57
2022-12-03T18:32:54.926Z,14.20
2022-12-03T18:35:23.047Z,13.13
2022-12-03T18:37:51.536Z,14.63
2022-12-03T18:40:20.763Z,13.57
2022-12-03T18:42:50.245Z,15.23
2022-12-03T18:45:18.578Z,14.63
2022-12-03T18:47:46.757Z,14.70
2022-12-03T18:50:15.037Z,15.30
2022-12-03T18:52:43.156Z,14.57
2022-12-03T18:55:14.737Z,15.10
2022-12-03T18:57:42.843Z,15.63
2022-12-03T19:00:14.691Z,15.53
2022-12-03T19:05:30.981Z,15.07
2022-12-03T19:07:59.205Z,14.60
2022-12-03T19:10:27.529Z,15.73
2022-12-03T19:12:55.641Z,16.17
2022-12-03T19:15:25.132Z,23.13
2022-12-03T19:17:53.276Z,19.00
2022-12-03T19:20:21.373Z,27.70
2022-12-03T19:22:49.475Z,20.13
2022-12-03T19:25:17.667Z,17.40
2022-12-03T19:27:45.781Z,16.40
2022-12-03T19:30:14.763Z,15.03
2022-12-03T19:32:45.408Z,15.23
2022-12-03T19:35:13.509Z,14.60
2022-12-03T19:37:41.658Z,16.40
2022-12-03T19:40:11.760Z,14.93
2022-12-03T19:42:40.219Z,15.00
2022-12-03T19:45:09.673Z,13.73
2022-12-03T19:47:38.037Z,14.33
2022-12-03T19:50:09.676Z,13.83
2022-12-03T19:52:37.816Z,13.73
2022-12-03T19:55:06.800Z,14.27
2022-12-03T19:57:34.948Z,13.63
2022-12-03T20:00:03.623Z,13.50
2022-12-03T20:02:40.673Z,14.17
2022-12-03T20:05:10.221Z,13.50
2022-12-03T20:07:38.310Z,14.70
2022-12-03T20:10:08.316Z,14.23
2022-12-03T20:12:36.423Z,13.43
2022-12-03T20:15:05.352Z,13.37
2022-12-03T20:17:33.455Z,13.27
2022-12-03T20:20:01.571Z,13.23
2022-12-03T20:22:31.057Z,12.93
2022-12-03T20:24:59.135Z,13.40
2022-12-03T20:27:27.238Z,12.80
2022-12-03T20:29:55.498Z,12.60
2022-12-03T20:32:23.780Z,13.50
2022-12-03T20:34:51.860Z,12.27
2022-12-03T20:37:20.067Z,13.27
2022-12-03T20:39:52.179Z,12.80
2022-12-03T20:42:20.492Z,13.00
2022-12-03T20:44:49.440Z,12.60
2022-12-03T20:47:17.625Z,11.73
2022-12-03T20:49:45.904Z,11.30
2022-12-03T20:52:14.151Z,12.43
2022-12-03T20:54:42.295Z,11.90
2022-12-03T20:57:11.836Z,12.43
2022-12-03T20:59:40.000Z,12.10
2022-12-03T21:02:08.227Z,12.07
2022-12-03T21:04:55.132Z,11.37
2022-12-03T21:07:43.775Z,12.33
2022-12-03T21:10:44.777Z,11.53
2022-12-03T21:13:34.520Z,11.83
2022-12-03T21:16:45.441Z,11.70
2022-12-03T21:19:33.105Z,10.77
2022-12-03T21:22:21.512Z,11.33
2022-12-03T21:25:10.280Z,10.93
2022-12-03T21:27:58.707Z,10.23
2022-12-03T21:30:48.469Z,10.97
2022-12-03T21:33:37.224Z,10.73
2022-12-03T21:36:26.097Z,11.27
2022-12-03T21:39:14.491Z,11.43
2022-12-03T21:42:25.949Z,10.87
2022-12-03T21:45:11.888Z,10.90
2022-12-03T21:48:01.697Z,10.80
2022-12-03T21:50:59.799Z,10.77
2022-12-03T21:53:48.250Z,11.67
2022-12-03T21:56:36.626Z,10.77
2022-12-03T21:59:25.284Z,10.97
2022-12-03T22:02:13.838Z,10.20
2022-12-03T22:05:03.804Z,10.53
2022-12-03T22:07:52.502Z,10.77
2022-12-03T22:10:41.391Z,10.37
2022-12-03T22:13:29.824Z,10.43
2022-12-03T22:16:20.085Z,10.37
2022-12-03T22:19:08.592Z,11.00
2022-12-03T22:21:58.354Z,9.97
2022-12-03T22:24:47.025Z,11.33
2022-12-03T22:27:35.446Z,10.80
2022-12-03T22:30:23.829Z,9.40
2022-12-03T22:33:12.464Z,10.10
2022-12-03T22:36:02.301Z,10.07
2022-12-03T22:38:52.107Z,10.70
2022-12-03T22:41:41.017Z,10.63
2022-12-03T22:44:29.496Z,9.70
2022-12-03T22:47:17.953Z,10.50
2022-12-03T22:50:10.518Z,11.40
2022-12-03T22:52:58.860Z,10.77
2022-12-03T22:55:55.252Z,10.03
2022-12-03T22:58:43.668Z,10.23
2022-12-03T23:01:33.536Z,10.90
2022-12-03T23:04:21.970Z,10.57
2022-12-03T23:07:10.481Z,10.43
2022-12-03T23:09:58.852Z,10.27
2022-12-03T23:12:48.534Z,10.20
2022-12-03T23:15:37.149Z,10.03
2022-12-03T23:18:25.582Z,10.17
2022-12-03T23:21:16.303Z,11.13
2022-12-03T23:24:05.610Z,10.20
2022-12-03T23:26:54.007Z,10.17
2022-12-03T23:29:43.866Z,11.40
2022-12-03T23:32:32.420Z,10.63
2022-12-03T23:35:21.083Z,10.50
2022-12-03T23:38:09.524Z,10.87
2022-12-03T23:40:57.954Z,10.37
2022-12-03T23:43:46.333Z,10.43
2022-12-03T23:46:36.265Z,11.03
2022-12-03T23:49:24.651Z,11.80
2022-12-03T23:52:12.997Z,10.90
2022-12-03T23:55:01.408Z,11.83
2022-12-03T23:57:49.805Z,10.80
